createdAt,value
2022-08-26T00:00:56.717Z,100984.41
2022-08-26T00:02:59.016Z,100982.72
2022-08-26T00:05:00.677Z,100987.28
2022-08-26T00:07:02.413Z,100980.53
2022-08-26T00:09:08.101Z,100974.81
2022-08-26T00:11:10.219Z,100973.09
2022-08-26T00:13:14.350Z,100971.63
2022-08-26T00:15:17.706Z,100974.19
2022-08-26T00:17:19.213Z,100970.69
2022-08-26T00:19:21.787Z,100976.81
2022-08-26T00:21:23.764Z,100970.38
2022-08-26T00:23:25.333Z,100968.69
2022-08-26T00:25:31.900Z,100963.63
2022-08-26T00:27:36.456Z,100968.22
2022-08-26T00:29:37.975Z,100970.22
2022-08-26T00:31:40.418Z,100963.41
2022-08-26T00:33:44.737Z,100964.56
2022-08-26T00:35:46.815Z,100968.91
2022-08-26T00:37:48.998Z,100959.44
2022-08-26T00:39:50.654Z,100959.75
2022-08-26T00:41:55.989Z,100955.97
2022-08-26T00:43:58.190Z,100952.94
2022-08-26T00:46:08.242Z,100957.81
2022-08-26T00:48:10.035Z,100962.09
2022-08-26T00:50:16.274Z,100951.00
2022-08-26T00:52:21.654Z,100946.97
2022-08-26T00:54:28.655Z,100949.84
2022-08-26T00:56:36.363Z,100945.41
2022-08-26T00:58:39.786Z,100954.78
2022-08-26T01:00:45.512Z,100954.94
2022-08-26T01:02:48.560Z,100952.41
2022-08-26T01:04:55.428Z,100960.06
2022-08-26T01:06:57.848Z,100953.31
2022-08-26T01:08:59.613Z,100961.47
2022-08-26T01:11:04.264Z,100952.00
2022-08-26T01:13:09.700Z,100955.72
2022-08-26T01:15:17.525Z,100951.69
2022-08-26T01:17:19.504Z,100947.59
2022-08-26T01:19:25.828Z,100938.38
2022-08-26T01:21:33.315Z,100953.00
2022-08-26T01:23:39.943Z,100949.59
2022-08-26T01:25:44.970Z,100948.06
2022-08-26T01:27:46.543Z,100958.06
2022-08-26T01:29:51.568Z,100951.63
2022-08-26T01:31:56.730Z,100951.06
2022-08-26T01:34:05.598Z,100949.22
2022-08-26T01:36:08.107Z,100944.09
2022-08-26T01:38:11.260Z,100944.94
2022-08-26T01:40:20.379Z,100938.81
2022-08-26T01:42:24.608Z,100943.41
2022-08-26T01:44:31.046Z,100944.56
2022-08-26T01:46:34.024Z,100946.41
2022-08-26T01:48:39.166Z,100944.72
2022-08-26T01:50:41.247Z,100942.84
2022-08-26T01:52:54.209Z,100935.03
2022-08-26T01:54:58.781Z,100940.06
2022-08-26T01:57:02.437Z,100939.31
2022-08-26T01:59:08.487Z,100943.63
2022-08-26T02:01:12.753Z,100938.91
2022-08-26T02:03:16.390Z,100941.81
2022-08-26T02:05:21.268Z,100942.50
2022-08-26T02:07:24.177Z,100937.06
2022-08-26T02:09:28.473Z,100936.78
2022-08-26T02:11:34.680Z,100941.91
2022-08-26T02:13:43.774Z,100938.78
2022-08-26T02:15:45.567Z,100937.94
2022-08-26T02:17:47.698Z,100937.63
2022-08-26T02:19:50.397Z,100933.66
2022-08-26T02:21:53.095Z,100936.06
2022-08-26T02:23:56.057Z,100940.78
2022-08-26T02:26:03.766Z,100937.38
2022-08-26T02:28:06.199Z,100933.44
2022-08-26T02:30:13.055Z,100932.88
2022-08-26T02:32:14.645Z,100934.19
2022-08-26T02:34:28.154Z,100938.91
2022-08-26T02:36:32.965Z,100933.22
2022-08-26T02:38:34.890Z,100939.19
2022-08-26T02:40:38.934Z,100930.66
2022-08-26T02:42:40.499Z,100923.91
2022-08-26T02:44:43.968Z,100932.34
2022-08-26T02:46:47.494Z,100921.50
2022-08-26T02:48:49.460Z,100922.13
2022-08-26T02:50:50.992Z,100928.53
2022-08-26T02:52:53.117Z,100926.28
2022-08-26T02:54:54.676Z,100919.00
2022-08-26T02:56:56.824Z,100916.59
2022-08-26T02:58:58.978Z,100915.91
2022-08-26T03:01:01.564Z,100915.91
2022-08-26T03:03:05.273Z,100914.19
2022-08-26T03:05:07.657Z,100918.75
2022-08-26T03:07:09.497Z,100916.06
2022-08-26T03:09:11.150Z,100911.38
2022-08-26T03:11:20.430Z,100908.56
2022-08-26T03:13:23.470Z,100913.69
2022-08-26T03:15:25.101Z,100912.53
2022-08-26T03:17:26.913Z,100912.53
2022-08-26T03:19:30.236Z,100909.88
2022-08-26T03:21:32.831Z,100911.44
2022-08-26T03:23:34.887Z,100916.41
2022-08-26T03:25:36.438Z,100907.88
2022-08-26T03:27:38.323Z,100912.31
2022-08-26T03:29:40.577Z,100906.88
2022-08-26T03:31:42.333Z,100907.31
2022-08-26T03:33:43.932Z,100914.91
2022-08-26T03:35:46.997Z,100905.03
2022-08-26T03:37:48.586Z,100900.47
2022-08-26T03:39:51.084Z,100902.63
2022-08-26T03:41:52.639Z,100899.59
2022-08-26T03:43:58.399Z,100896.91
2022-08-26T03:46:05.086Z,100892.06
2022-08-26T03:48:06.815Z,100899.59
2022-08-26T03:50:11.687Z,100898.63
2022-08-26T03:52:15.550Z,100897.50
2022-08-26T03:54:17.676Z,100895.78
2022-08-26T03:56:19.231Z,100884.44
2022-08-26T03:58:21.095Z,100893.69
2022-08-26T04:00:23.066Z,100889.44
2022-08-26T04:02:26.131Z,100890.66
2022-08-26T04:04:27.752Z,100889.66
2022-08-26T04:06:31.398Z,100889.22
2022-08-26T04:08:34.719Z,100891.06
2022-08-26T04:10:37.629Z,100893.63
2022-08-26T04:12:40.337Z,100889.66
2022-08-26T04:14:42.038Z,100894.38
2022-08-26T04:16:43.677Z,100888.97
2022-08-26T04:18:46.938Z,100888.09
2022-08-26T04:20:49.140Z,100890.25
2022-08-26T04:22:50.698Z,100893.25
2022-08-26T04:24:53.690Z,100896.13
2022-08-26T04:26:55.943Z,100893.81
2022-08-26T04:28:57.438Z,100892.13
2022-08-26T04:31:01.017Z,100892.97
2022-08-26T04:33:02.573Z,100893.81
2022-08-26T04:35:04.904Z,100892.41
2022-08-26T04:37:08.396Z,100890.97
2022-08-26T04:39:11.409Z,100885.53
2022-08-26T04:41:15.685Z,100883.94
2022-08-26T04:43:18.770Z,100884.66
2022-08-26T04:45:22.847Z,100884.66
2022-08-26T04:47:27.136Z,100885.19
2022-08-26T04:49:35.106Z,100879.66
2022-08-26T04:51:38.211Z,100883.78
2022-08-26T04:53:40.345Z,100880.78
2022-08-26T04:55:42.868Z,100885.75
2022-08-26T04:57:48.015Z,100883.97
2022-08-26T04:59:49.557Z,100887.78
2022-08-26T05:01:53.305Z,100887.47
2022-08-26T05:03:55.011Z,100892.00
2022-08-26T05:05:56.670Z,100891.81
2022-08-26T05:07:58.375Z,100890.56
2022-08-26T05:09:59.932Z,100897.41
2022-08-26T05:12:01.487Z,100897.94
2022-08-26T05:14:06.545Z,100897.09
2022-08-26T05:16:11.680Z,100902.47
2022-08-26T05:18:15.513Z,100905.03
2022-08-26T05:20:17.718Z,100906.56
2022-08-26T05:22:19.901Z,100905.41
2022-08-26T05:24:22.001Z,100902.09
2022-08-26T05:26:26.199Z,100907.97
2022-08-26T05:28:29.898Z,100905.78
2022-08-26T05:30:32.766Z,100903.28
2022-08-26T05:32:35.854Z,100915.22
2022-08-26T05:34:37.801Z,100912.94
2022-08-26T05:36:39.872Z,100906.53
2022-08-26T05:38:41.882Z,100907.94
2022-08-26T05:40:47.334Z,100908.41
2022-08-26T05:42:48.810Z,100906.25
2022-08-26T05:44:55.808Z,100908.53
2022-08-26T05:46:58.975Z,100908.53
2022-08-26T05:49:00.705Z,100894.63
2022-08-26T05:51:03.891Z,100907.25
2022-08-26T05:53:06.838Z,100907.53
2022-08-26T05:55:08.872Z,100909.22
2022-08-26T05:57:10.519Z,100904.34
2022-08-26T05:59:14.647Z,100901.63
2022-08-26T06:01:18.823Z,100907.91
2022-08-26T06:03:21.745Z,100908.16
2022-08-26T06:05:24.121Z,100903.88
2022-08-26T06:07:26.747Z,100900.28
2022-08-26T06:09:28.300Z,100900.66
2022-08-26T06:11:31.032Z,100905.31
2022-08-26T06:13:33.907Z,100898.69
2022-08-26T06:15:39.770Z,100902.09
2022-08-26T06:17:43.806Z,100910.38
2022-08-26T06:19:46.649Z,100908.91
2022-08-26T06:21:51.270Z,100900.09
2022-08-26T06:23:58.631Z,100894.09
2022-08-26T06:26:00.961Z,100902.06
2022-08-26T06:28:02.925Z,100901.69
2022-08-26T06:30:05.185Z,100901.69
2022-08-26T06:32:08.830Z,100883.59
2022-08-26T06:34:10.979Z,100898.19
2022-08-26T06:36:17.415Z,100901.25
2022-08-26T06:38:20.258Z,100893.69
2022-08-26T06:40:22.137Z,100893.09
2022-08-26T06:42:23.717Z,100892.34
2022-08-26T06:44:25.292Z,100895.81
2022-08-26T06:46:28.080Z,100896.50
2022-08-26T06:48:30.039Z,100899.41
2022-08-26T06:50:31.588Z,100896.41
2022-08-26T06:52:34.492Z,100894.03
2022-08-26T06:54:38.875Z,100904.97
2022-08-26T06:56:42.069Z,100901.91
2022-08-26T06:58:44.525Z,100898.16
2022-08-26T07:00:47.347Z,100894.06
2022-08-26T07:02:49.273Z,100904.09
2022-08-26T07:04:51.186Z,100900.53
2022-08-26T07:06:53.860Z,100892.34
2022-08-26T07:09:03.648Z,100890.13
2022-08-26T07:11:07.302Z,100885.84
2022-08-26T07:13:10.721Z,100889.91
2022-08-26T07:15:12.269Z,100889.19
2022-08-26T07:17:14.058Z,100888.34
2022-08-26T07:19:16.783Z,100887.63
2022-08-26T07:21:18.764Z,100883.38
2022-08-26T07:23:20.310Z,100885.41
2022-08-26T07:25:25.450Z,100886.41
2022-08-26T07:27:26.970Z,100888.38
2022-08-26T07:29:30.664Z,100881.84
2022-08-26T07:31:39.506Z,100886.00
2022-08-26T07:33:44.414Z,100885.81
2022-08-26T07:35:46.000Z,100883.81
2022-08-26T07:37:48.030Z,100879.94
2022-08-26T07:39:50.603Z,100879.41
2022-08-26T07:41:53.685Z,100885.31
2022-08-26T07:43:55.366Z,100874.84
2022-08-26T07:45:57.759Z,100880.50
2022-08-26T07:47:59.484Z,100877.41
2022-08-26T07:50:01.316Z,100880.66
2022-08-26T07:52:04.013Z,100876.53
2022-08-26T07:54:06.578Z,100879.03
2022-08-26T07:56:08.123Z,100875.84
2022-08-26T07:58:11.829Z,100874.50
2022-08-26T08:00:15.491Z,100880.22
2022-08-26T08:02:17.160Z,100881.34
2022-08-26T08:04:21.936Z,100872.94
2022-08-26T08:06:28.175Z,100878.88
2022-08-26T08:08:29.950Z,100869.34
2022-08-26T08:10:34.802Z,100865.41
2022-08-26T08:12:36.650Z,100868.22
2022-08-26T08:14:39.547Z,100862.03
2022-08-26T08:16:42.376Z,100873.47
2022-08-26T08:18:47.793Z,100868.38
2022-08-26T08:20:59.197Z,100865.94
2022-08-26T08:23:06.786Z,100864.16
2022-08-26T08:25:10.574Z,100854.13
2022-08-26T08:27:12.981Z,100855.31
2022-08-26T08:29:15.145Z,100866.44
2022-08-26T08:31:45.354Z,100859.94
2022-08-26T08:33:44.527Z,100857.84
2022-08-26T08:35:46.117Z,100846.91
2022-08-26T08:37:47.844Z,100850.47
2022-08-26T08:39:50.761Z,100844.75
2022-08-26T08:42:13.848Z,100841.38
2022-08-26T08:44:19.245Z,100850.75
2022-08-26T08:46:22.601Z,100848.59
2022-08-26T08:48:30.027Z,100841.69
2022-08-26T08:50:33.606Z,100838.28
2022-08-26T08:52:36.270Z,100840.91
2022-08-26T08:54:37.963Z,100844.28
2022-08-26T08:56:44.574Z,100842.84
2022-08-26T08:58:52.975Z,100832.34
2022-08-26T09:01:02.612Z,100825.72
2022-08-26T09:03:17.782Z,100836.41
2022-08-26T09:05:22.814Z,100835.13
2022-08-26T09:07:27.507Z,100840.06
2022-08-26T09:09:34.230Z,100830.03
2022-08-26T09:11:36.060Z,100829.63
2022-08-26T09:13:38.657Z,100833.16
2022-08-26T09:15:55.274Z,100831.72
2022-08-26T09:18:08.534Z,100832.50
2022-08-26T09:20:19.522Z,100830.56
2022-08-26T09:22:32.810Z,100820.53
2022-08-26T09:24:42.046Z,100829.78
2022-08-26T09:26:50.180Z,100836.41
2022-08-26T09:28:56.501Z,100828.84
2022-08-26T09:31:02.094Z,100825.34
2022-08-26T09:33:11.140Z,100829.63
2022-08-26T09:35:25.539Z,100822.72
2022-08-26T09:37:40.250Z,100825.53
2022-08-26T09:39:41.886Z,100819.78
2022-08-26T09:41:43.468Z,100819.06
2022-08-26T09:44:08.358Z,100814.66
2022-08-26T09:46:22.789Z,100812.78
2022-08-26T09:48:29.385Z,100806.91
2022-08-26T09:50:35.069Z,100801.19
2022-08-26T09:52:37.354Z,100791.53
2022-08-26T09:54:43.274Z,100789.00
2022-08-26T09:56:47.137Z,100788.19
2022-08-26T09:58:48.806Z,100787.97
2022-08-26T10:00:54.573Z,100781.34
2022-08-26T10:02:58.170Z,100782.50
2022-08-26T10:05:09.307Z,100777.41
2022-08-26T10:07:12.921Z,100778.25
2022-08-26T10:09:18.483Z,100767.53
2022-08-26T10:11:28.760Z,100761.81
2022-08-26T10:13:34.150Z,100753.56
2022-08-26T10:15:50.085Z,100749.97
2022-08-26T10:18:00.888Z,100744.00
2022-08-26T10:20:09.813Z,100734.88
2022-08-26T10:22:34.426Z,100725.97
2022-08-26T10:24:41.506Z,100730.59
2022-08-26T10:27:01.128Z,100729.25
2022-08-26T10:29:11.961Z,100728.09
2022-08-26T10:31:23.166Z,100717.94
2022-08-26T10:33:29.532Z,100725.22
2022-08-26T10:35:35.006Z,100710.16
2022-08-26T10:37:40.970Z,100712.34
2022-08-26T10:39:49.638Z,100711.56
2022-08-26T10:42:04.048Z,100714.97
2022-08-26T10:44:08.375Z,100707.69
2022-08-26T10:46:14.954Z,100709.00
2022-08-26T10:48:24.090Z,100698.69
2022-08-26T10:50:31.265Z,100697.47
2022-08-26T10:52:51.943Z,100695.19
2022-08-26T10:54:58.936Z,100690.16
2022-08-26T10:57:09.720Z,100688.28
2022-08-26T10:59:24.214Z,100680.06
2022-08-26T11:01:32.630Z,100677.28
2022-08-26T11:03:40.151Z,100669.66
2022-08-26T11:05:41.647Z,100674.25
2022-08-26T11:07:45.771Z,100675.47
2022-08-26T11:09:48.079Z,100670.78
2022-08-26T11:11:51.465Z,100673.25
2022-08-26T11:14:02.060Z,100665.97
2022-08-26T11:16:03.664Z,100671.66
2022-08-26T11:18:08.659Z,100674.41
2022-08-26T11:20:13.383Z,100666.56
2022-08-26T11:22:25.402Z,100674.34
2022-08-26T11:24:41.709Z,100658.91
2022-08-26T11:26:56.143Z,100662.47
2022-08-26T11:28:58.243Z,100654.28
2022-08-26T11:30:59.837Z,100654.88
2022-08-26T11:33:01.580Z,100643.69
2022-08-26T11:35:06.047Z,100645.56
2022-08-26T11:37:13.606Z,100644.91
2022-08-26T11:39:19.815Z,100648.81
2022-08-26T11:41:22.982Z,100651.13
2022-08-26T11:43:26.304Z,100667.06
2022-08-26T11:45:34.364Z,100661.81
2022-08-26T11:47:38.952Z,100653.56
2022-08-26T11:49:41.728Z,100651.19
2022-08-26T11:51:46.414Z,100663.22
2022-08-26T11:53:50.612Z,100665.56
2022-08-26T11:55:54.275Z,100672.16
2022-08-26T11:58:00.461Z,100673.19
2022-08-26T12:00:03.696Z,100678.09
2022-08-26T12:02:12.713Z,100692.72
2022-08-26T12:04:25.501Z,100692.81
2022-08-26T12:06:31.410Z,100683.78
2022-08-26T12:08:33.877Z,100685.31
2022-08-26T12:10:37.395Z,100698.47
2022-08-26T12:12:38.924Z,100706.22
2022-08-26T12:14:42.216Z,100710.16
2022-08-26T12:16:44.066Z,100710.69
2022-08-26T12:18:45.706Z,100703.25
2022-08-26T12:20:48.203Z,100705.97
2022-08-26T12:22:50.281Z,100692.94
2022-08-26T12:24:55.877Z,100678.00
2022-08-26T12:27:13.853Z,100691.47
2022-08-26T12:29:27.097Z,100729.97
2022-08-26T12:31:33.560Z,100746.66
2022-08-26T12:33:35.809Z,100752.94
2022-08-26T12:35:39.372Z,100760.59
2022-08-26T12:37:45.820Z,100763.03
2022-08-26T12:39:47.865Z,100769.84
2022-08-26T12:41:51.970Z,100767.47
2022-08-26T12:43:53.549Z,100763.53
2022-08-26T12:45:58.474Z,100754.19
2022-08-26T12:48:05.903Z,100749.09
2022-08-26T12:50:08.407Z,100736.84
2022-08-26T12:52:22.914Z,100727.94
2022-08-26T12:54:24.677Z,100724.22
2022-08-26T12:56:30.808Z,100718.69
2022-08-26T12:58:35.002Z,100721.06
2022-08-26T13:00:38.825Z,100717.44
2022-08-26T13:02:40.499Z,100727.22
2022-08-26T13:04:44.167Z,100742.78
2022-08-26T13:06:45.959Z,100768.16
2022-08-26T13:08:48.638Z,100779.84
2022-08-26T13:11:02.380Z,100780.94
2022-08-26T13:13:03.870Z,100788.69
2022-08-26T13:15:06.965Z,100787.66
2022-08-26T13:17:08.601Z,100793.25
2022-08-26T13:19:12.104Z,100775.88
2022-08-26T13:21:17.838Z,100745.13
2022-08-26T13:23:20.649Z,100702.41
2022-08-26T13:25:22.204Z,100680.28
2022-08-26T13:27:25.809Z,100672.66
2022-08-26T13:29:27.397Z,100685.03
2022-08-26T13:31:32.731Z,100689.44
2022-08-26T13:33:35.116Z,100680.69
2022-08-26T13:35:37.134Z,100667.38
2022-08-26T13:37:40.281Z,100657.09
2022-08-26T13:39:43.544Z,100648.50
2022-08-26T13:41:45.191Z,100658.59
2022-08-26T13:43:46.844Z,100668.94
2022-08-26T13:45:48.368Z,100675.50
2022-08-26T13:47:49.942Z,100679.59
2022-08-26T13:49:51.692Z,100688.34
2022-08-26T13:51:53.304Z,100677.03
2022-08-26T13:53:56.508Z,100674.88
2022-08-26T13:55:59.030Z,100673.72
2022-08-26T13:58:00.604Z,100684.78
2022-08-26T14:00:02.508Z,100693.00
2022-08-26T14:02:04.302Z,100701.97
2022-08-26T14:04:05.930Z,100724.91
2022-08-26T14:06:07.620Z,100745.69
2022-08-26T14:08:09.793Z,100758.59
2022-08-26T14:10:12.918Z,100758.75
2022-08-26T14:12:14.529Z,100773.09
2022-08-26T14:14:16.079Z,100776.50
2022-08-26T14:16:22.829Z,100769.19
2022-08-26T14:18:28.859Z,100767.75
2022-08-26T14:20:32.028Z,100774.72
2022-08-26T14:22:33.717Z,100775.56
2022-08-26T14:24:35.294Z,100769.34
2022-08-26T14:26:38.210Z,100768.78
2022-08-26T14:28:39.788Z,100776.38
2022-08-26T14:30:43.011Z,100762.63
2022-08-26T14:32:46.972Z,100740.16
2022-08-26T14:34:48.651Z,100721.72
2022-08-26T14:36:50.211Z,100709.59
2022-08-26T14:38:52.778Z,100730.25
2022-08-26T14:40:54.360Z,100757.31
2022-08-26T14:43:08.588Z,100762.44
2022-08-26T14:45:13.998Z,100761.00
2022-08-26T14:47:15.560Z,100733.72
2022-08-26T14:49:18.317Z,100732.84
2022-08-26T14:51:20.118Z,100714.09
2022-08-26T14:53:22.101Z,100703.53
2022-08-26T14:55:23.720Z,100679.38
2022-08-26T14:57:25.346Z,100670.25
2022-08-26T14:59:31.182Z,100653.75
2022-08-26T15:01:32.978Z,100656.88
2022-08-26T15:03:34.709Z,100642.94
2022-08-26T15:05:36.389Z,100628.44
2022-08-26T15:07:38.097Z,100628.97
2022-08-26T15:09:40.091Z,100605.06
2022-08-26T15:11:41.779Z,100607.78
2022-08-26T15:13:43.334Z,100598.22
2022-08-26T15:15:46.314Z,100604.19
2022-08-26T15:17:47.912Z,100596.78
2022-08-26T15:19:51.083Z,100605.59
2022-08-26T15:21:53.291Z,100603.03
2022-08-26T15:23:55.190Z,100611.44
2022-08-26T15:25:56.810Z,100609.84
2022-08-26T15:27:58.377Z,100611.78
2022-08-26T15:30:01.815Z,100613.09
2022-08-26T15:32:05.123Z,100602.81
2022-08-26T15:34:10.997Z,100596.00
2022-08-26T15:36:14.990Z,100604.81
2022-08-26T15:38:16.627Z,100611.94
2022-08-26T15:40:18.589Z,100604.13
2022-08-26T15:42:23.809Z,100605.03
2022-08-26T15:44:26.051Z,100590.69
2022-08-26T15:46:27.792Z,100585.28
2022-08-26T15:48:30.898Z,100581.72
2022-08-26T15:50:32.530Z,100575.06
2022-08-26T15:52:34.142Z,100563.72
2022-08-26T15:54:35.843Z,100562.56
2022-08-26T15:56:37.964Z,100553.75
2022-08-26T15:58:40.319Z,100565.66
2022-08-26T16:00:42.582Z,100567.66
2022-08-26T16:02:44.233Z,100556.00
2022-08-26T16:04:47.191Z,100539.97
2022-08-26T16:06:50.075Z,100562.84
2022-08-26T16:08:51.672Z,100568.25
2022-08-26T16:10:53.264Z,100574.53
2022-08-26T16:12:54.828Z,100567.19
2022-08-26T16:14:56.421Z,100560.66
2022-08-26T16:16:58.046Z,100563.63
2022-08-26T16:19:00.577Z,100557.22
2022-08-26T16:21:13.175Z,100553.22
2022-08-26T16:23:15.794Z,100560.03
2022-08-26T16:25:17.525Z,100552.91
2022-08-26T16:27:19.082Z,100554.91
2022-08-26T16:29:24.744Z,100552.09
2022-08-26T16:31:26.428Z,100555.22
2022-08-26T16:33:29.253Z,100568.72
2022-08-26T16:35:31.278Z,100576.00
2022-08-26T16:37:36.522Z,100593.59
2022-08-26T16:39:45.153Z,100607.22
2022-08-26T16:41:47.076Z,100607.84
2022-08-26T16:43:48.876Z,100593.59
2022-08-26T16:45:50.468Z,100605.13
2022-08-26T16:47:52.382Z,100608.53
2022-08-26T16:49:54.019Z,100601.13
2022-08-26T16:51:55.600Z,100605.22
2022-08-26T16:54:01.658Z,100606.88
2022-08-26T16:56:03.773Z,100609.75
2022-08-26T16:58:05.338Z,100621.41
2022-08-26T17:00:11.151Z,100619.16
2022-08-26T17:02:12.812Z,100617.75
2022-08-26T17:04:15.877Z,100628.97
2022-08-26T17:06:17.545Z,100623.31
2022-08-26T17:08:24.427Z,100615.16
2022-08-26T17:10:32.762Z,100604.69
2022-08-26T17:12:34.612Z,100624.41
2022-08-26T17:14:36.172Z,100629.06
2022-08-26T17:16:38.150Z,100618.44
2022-08-26T17:18:39.825Z,100632.38
2022-08-26T17:20:44.331Z,100629.13
2022-08-26T17:22:47.976Z,100628.44
2022-08-26T17:24:49.690Z,100616.59
2022-08-26T17:26:53.454Z,100619.84
2022-08-26T17:28:57.872Z,100614.34
2022-08-26T17:31:00.065Z,100617.44
2022-08-26T17:33:01.838Z,100621.97
2022-08-26T17:35:13.782Z,100626.28
2022-08-26T17:37:15.358Z,100624.56
2022-08-26T17:39:16.944Z,100614.84
2022-08-26T17:41:18.568Z,100614.59
2022-08-26T17:43:21.718Z,100612.78
2022-08-26T17:45:23.250Z,100610.94
2022-08-26T17:47:24.749Z,100606.81
2022-08-26T17:49:26.436Z,100609.13
2022-08-26T17:51:27.994Z,100605.44
2022-08-26T17:53:29.552Z,100606.56
2022-08-26T17:55:31.104Z,100604.63
2022-08-26T17:57:40.881Z,100609.44
2022-08-26T17:59:45.144Z,100604.03
2022-08-26T18:01:47.788Z,100605.47
2022-08-26T18:03:49.795Z,100599.22
2022-08-26T18:05:52.394Z,100596.97
2022-08-26T18:07:53.971Z,100607.19
2022-08-26T18:09:55.614Z,100598.81
2022-08-26T18:11:57.136Z,100591.19
2022-08-26T18:13:58.715Z,100589.09
2022-08-26T18:16:04.767Z,100590.34
2022-08-26T18:18:06.431Z,100590.75
2022-08-26T18:20:10.520Z,100593.00
2022-08-26T18:22:12.067Z,100603.31
2022-08-26T18:24:17.431Z,100601.63
2022-08-26T18:26:21.559Z,100596.28
2022-08-26T18:28:23.084Z,100603.78
2022-08-26T18:30:25.811Z,100599.91
2022-08-26T18:32:28.739Z,100603.31
2022-08-26T18:34:31.655Z,100596.53
2022-08-26T18:36:36.017Z,100590.28
2022-08-26T18:38:37.567Z,100587.50
2022-08-26T18:40:40.778Z,100582.16
2022-08-26T18:42:42.350Z,100570.84
2022-08-26T18:44:44.094Z,100563.72
2022-08-26T18:46:46.767Z,100569.16
2022-08-26T18:48:51.014Z,100563.88
2022-08-26T18:50:55.175Z,100555.38
2022-08-26T18:52:56.889Z,100569.75
2022-08-26T18:54:58.640Z,100567.44
2022-08-26T18:57:00.742Z,100560.72
2022-08-26T18:59:02.894Z,100556.00
2022-08-26T19:01:04.579Z,100554.00
2022-08-26T19:03:06.290Z,100561.25
2022-08-26T19:05:20.262Z,100561.72
2022-08-26T19:07:21.848Z,100568.28
2022-08-26T19:09:23.417Z,100577.19
2022-08-26T19:11:32.511Z,100581.75
2022-08-26T19:13:44.071Z,100587.44
2022-08-26T19:15:45.623Z,100590.44
2022-08-26T19:17:47.173Z,100594.00
2022-08-26T19:19:48.685Z,100604.50
2022-08-26T19:21:52.377Z,100603.53
2022-08-26T19:23:56.948Z,100611.78
2022-08-26T19:25:59.271Z,100623.88
2022-08-26T19:28:00.810Z,100633.25
2022-08-26T19:30:02.354Z,100630.88
2022-08-26T19:32:04.533Z,100627.88
2022-08-26T19:34:06.110Z,100626.06
2022-08-26T19:36:12.675Z,100634.25
2022-08-26T19:38:17.664Z,100630.44
2022-08-26T19:40:19.479Z,100635.00
2022-08-26T19:42:21.057Z,100640.44
2022-08-26T19:44:23.283Z,100652.06
2022-08-26T19:46:25.758Z,100649.13
2022-08-26T19:48:27.381Z,100650.75
2022-08-26T19:50:31.110Z,100636.13
2022-08-26T19:52:32.714Z,100647.47
2022-08-26T19:54:35.621Z,100632.16
2022-08-26T19:56:37.101Z,100638.72
2022-08-26T19:58:38.998Z,100639.28
2022-08-26T20:00:40.574Z,100637.03
2022-08-26T20:02:42.701Z,100635.88
2022-08-26T20:04:44.463Z,100639.28
2022-08-26T20:06:45.969Z,100641.31
2022-08-26T20:08:52.309Z,100652.13
2022-08-26T20:11:01.960Z,100657.28
2022-08-26T20:13:03.492Z,100662.00
2022-08-26T20:15:06.224Z,100664.16
2022-08-26T20:17:07.998Z,100662.13
2022-08-26T20:19:09.515Z,100666.44
2022-08-26T20:21:11.181Z,100665.00
2022-08-26T20:23:12.985Z,100673.16
2022-08-26T20:25:14.585Z,100668.06
2022-08-26T20:27:17.886Z,100659.38
2022-08-26T20:29:19.593Z,100658.97
2022-08-26T20:31:21.197Z,100659.63
2022-08-26T20:33:22.813Z,100659.38
2022-08-26T20:35:24.406Z,100662.22
2022-08-26T20:37:25.968Z,100663.53
2022-08-26T20:39:28.133Z,100664.22
2022-08-26T20:41:29.737Z,100669.47
2022-08-26T20:43:32.733Z,100672.19
2022-08-26T20:45:34.468Z,100674.47
2022-08-26T20:47:36.770Z,100678.59
2022-08-26T20:49:38.400Z,100677.91
2022-08-26T20:51:40.897Z,100668.78
2022-08-26T20:53:42.819Z,100679.59
2022-08-26T20:55:44.353Z,100682.16
2022-08-26T20:57:46.202Z,100682.72
2022-08-26T20:59:49.198Z,100677.31
2022-08-26T21:01:50.926Z,100677.03
2022-08-26T21:03:53.552Z,100673.59
2022-08-26T21:05:55.255Z,100680.44
2022-08-26T21:07:56.794Z,100680.31
2022-08-26T21:09:58.409Z,100676.59
2022-08-26T21:12:01.041Z,100689.56
2022-08-26T21:14:16.162Z,100680.16
2022-08-26T21:16:20.492Z,100680.16
2022-08-26T21:18:22.150Z,100679.31
2022-08-26T21:20:23.761Z,100680.41
2022-08-26T21:22:25.490Z,100667.25
2022-08-26T21:24:27.273Z,100666.34
2022-08-26T21:26:29.335Z,100663.41
2022-08-26T21:28:31.101Z,100668.97
2022-08-26T21:30:33.095Z,100661.84
2022-08-26T21:32:36.180Z,100657.19
2022-08-26T21:34:37.796Z,100649.47
2022-08-26T21:36:41.399Z,100658.28
2022-08-26T21:38:43.579Z,100659.84
2022-08-26T21:40:45.247Z,100657.06
2022-08-26T21:42:46.873Z,100651.56
2022-08-26T21:44:50.844Z,100660.81
2022-08-26T21:46:54.687Z,100656.25
2022-08-26T21:49:00.559Z,100653.66
2022-08-26T21:51:04.341Z,100654.78
2022-08-26T21:53:06.059Z,100651.63
2022-08-26T21:55:11.681Z,100650.63
2022-08-26T21:57:13.512Z,100660.44
2022-08-26T21:59:17.584Z,100662.13
2022-08-26T22:01:21.593Z,100669.84
2022-08-26T22:03:23.276Z,100684.97
2022-08-26T22:05:26.553Z,100683.72
2022-08-26T22:07:28.287Z,100682.56
2022-08-26T22:09:31.037Z,100677.31
2022-08-26T22:11:32.650Z,100674.47
2022-08-26T22:13:36.107Z,100669.66
2022-08-26T22:15:37.731Z,100659.44
2022-08-26T22:17:39.806Z,100664.53
2022-08-26T22:19:46.282Z,100656.72
2022-08-26T22:21:50.332Z,100658.28
2022-08-26T22:23:56.149Z,100653.16
2022-08-26T22:26:00.475Z,100645.31
2022-08-26T22:28:02.767Z,100635.97
2022-08-26T22:30:05.720Z,100633.97
2022-08-26T22:32:07.677Z,100632.09
2022-08-26T22:34:11.593Z,100622.19
2022-08-26T22:36:18.090Z,100620.47
2022-08-26T22:38:21.906Z,100620.47
2022-08-26T22:40:23.858Z,100606.50
2022-08-26T22:42:25.605Z,100596.00
2022-08-26T22:44:27.316Z,100594.28
2022-08-26T22:46:29.106Z,100581.78
2022-08-26T22:48:30.793Z,100578.38
2022-08-26T22:50:32.704Z,100576.06
2022-08-26T22:52:34.578Z,100574.06
2022-08-26T22:54:37.628Z,100576.53
2022-08-26T22:56:40.163Z,100566.00
2022-08-26T22:58:41.935Z,100563.16
2022-08-26T23:00:45.667Z,100559.44
2022-08-26T23:02:47.599Z,100554.34
2022-08-26T23:04:49.262Z,100551.34
2022-08-26T23:06:51.265Z,100548.78
2022-08-26T23:08:53.289Z,100543.97
2022-08-26T23:10:56.394Z,100561.75
2022-08-26T23:12:58.559Z,100568.66
2022-08-26T23:15:01.363Z,100586.88
2022-08-26T23:17:03.161Z,100591.16
2022-08-26T23:19:05.080Z,100597.09
2022-08-26T23:21:07.221Z,100602.25
2022-08-26T23:23:09.372Z,100601.97
2022-08-26T23:25:11.954Z,100601.09
2022-08-26T23:27:15.201Z,100611.50
2022-08-26T23:29:17.007Z,100603.28
2022-08-26T23:31:19.070Z,100596.16
2022-08-26T23:33:21.112Z,100604.28